Time;durP1;ratioP1;P1;durP2;ratioP2;P2;SDS_P1;SDS_P2;PMS_P1;PMS_P2;Temp;Humidity;BMP_temperature;BMP_pressure;BME280_temperature;BME280_humidity;BME280_pressure;Samples;Min_cycle;Max_cycle;Signal;HPM_P1;HPM_P2
2021/12/29 00:00:23;;;;;;;13.40;2.55;;;;;;;5.30;100.00;94533.22;1005981;29;20021;-65
2021/12/29 00:00:54;;;;;;;7.07;2.03;;;;;;;5.38;100.00;94540.50;1015670;29;20505;-66
2021/12/29 00:01:24;;;;;;;14.25;2.72;;;;;;;5.33;100.00;94535.31;1010587;29;20277;-65
2021/12/29 00:01:55;;;;;;;13.30;2.15;;;;;;;5.37;100.00;94546.75;1008641;29;20040;-63
2021/12/29 00:02:25;;;;;;;12.23;2.42;;;;;;;5.36;100.00;94542.56;1010289;29;20173;-67
2021/12/29 00:02:58;;;;;;;13.90;3.17;;;;;;;5.36;100.00;94542.56;1014532;29;20055;-66
2021/12/29 00:03:28;;;;;;;9.43;2.55;;;;;;;5.32;100.00;94549.34;1014521;29;20450;-66
2021/12/29 00:03:59;;;;;;;10.00;2.17;;;;;;;5.36;100.00;94541.78;1014405;29;20276;-66
2021/12/29 00:04:31;;;;;;;17.63;2.30;;;;;;;5.31;100.00;94542.56;1018158;29;20409;-67
2021/12/29 00:05:05;;;;;;;11.20;2.20;;;;;;;5.32;100.00;94546.72;1014650;29;20024;-65
2021/12/29 00:05:38;;;;;;;11.25;2.08;;;;;;;5.32;100.00;94528.53;1012737;29;20471;-66
2021/12/29 00:06:08;;;;;;;12.60;2.55;;;;;;;5.34;100.00;94547.25;1014431;29;20292;-66
2021/12/29 00:06:39;;;;;;;11.48;2.30;;;;;;;5.29;100.00;94536.84;1011329;29;20265;-66
2021/12/29 00:07:12;;;;;;;12.93;2.38;;;;;;;5.35;100.00;94545.44;1009176;29;20063;-65
2021/12/29 00:07:43;;;;;;;10.70;2.63;;;;;;;5.36;100.00;94547.75;1003216;29;20040;-66
2021/12/29 00:08:13;;;;;;;11.73;2.40;;;;;;;5.35;100.00;94543.63;1010499;29;20315;-65
2021/12/29 00:08:43;;;;;;;11.95;2.42;;;;;;;5.35;100.00;94541.00;1014656;29;20324;-64
2021/12/29 00:09:14;;;;;;;17.02;2.75;;;;;;;5.36;100.00;94544.38;1015293;29;20036;-65
2021/12/29 00:09:45;;;;;;;11.38;2.40;;;;;;;5.38;100.00;94547.53;1018256;29;20023;-66
2021/12/29 00:10:15;;;;;;;9.57;1.58;;;;;;;5.36;100.00;94547.75;1014315;29;20051;-65
2021/12/29 00:10:54;;;;;;;11.75;2.05;;;;;;;5.34;100.00;94541.28;1006752;29;20546;-65
2021/12/29 00:11:26;;;;;;;12.20;2.75;;;;;;;5.33;100.00;94537.91;1002835;29;20026;-66
2021/12/29 00:11:56;;;;;;;6.47;2.05;;;;;;;5.33;100.00;94543.09;1002749;29;20345;-65
2021/12/29 00:12:27;;;;;;;11.75;2.15;;;;;;;5.30;100.00;94530.63;1009094;29;20344;-65
2021/12/29 00:12:58;;;;;;;16.63;3.00;;;;;;;5.29;100.00;94526.44;1014102;29;20028;-64
2021/12/29 00:13:29;;;;;;;12.10;2.22;;;;;;;5.33;100.00;94548.31;1014358;29;20028;-66
2021/12/29 00:13:59;;;;;;;15.77;2.90;;;;;;;5.26;100.00;94531.38;1018247;29;20031;-65
2021/12/29 00:14:30;;;;;;;10.27;1.88;;;;;;;5.32;100.00;94531.13;1015402;29;20032;-65
2021/12/29 00:15:00;;;;;;;13.02;3.15;;;;;;;5.32;100.00;94535.56;1006805;29;20059;-67
2021/12/29 00:15:31;;;;;;;11.27;2.03;;;;;;;5.42;100.00;94538.16;1010480;29;20045;-66
2021/12/29 00:16:01;;;;;;;13.48;2.55;;;;;;;5.39;100.00;94533.47;1010475;29;20096;-66
2021/12/29 00:16:35;;;;;;;19.27;3.05;;;;;;;5.38;100.00;94531.91;1006759;29;20033;-65
2021/12/29 00:17:05;;;;;;;11.52;2.15;;;;;;;5.34;100.00;94536.09;1008966;29;20111;-64
2021/12/29 00:17:36;;;;;;;14.02;2.42;;;;;;;5.36;100.00;94537.38;1006717;29;20261;-66
2021/12/29 00:18:06;;;;;;;13.68;2.45;;;;;;;5.39;100.00;94534.25;1006584;29;20044;-66
2021/12/29 00:18:37;;;;;;;16.42;2.47;;;;;;;5.39;100.00;94530.88;1010604;29;20029;-67
2021/12/29 00:19:07;;;;;;;12.73;2.80;;;;;;;5.33;100.00;94537.91;1014460;29;20505;-65
2021/12/29 00:19:38;;;;;;;18.45;2.88;;;;;;;5.35;100.00;94541.00;1014527;29;20032;-68
2021/12/29 00:20:09;;;;;;;11.25;2.17;;;;;;;5.35;100.00;94546.22;1013834;29;20028;-65
2021/12/29 00:20:39;;;;;;;12.40;2.45;;;;;;;5.36;100.00;94529.56;1010262;29;20024;-66
2021/12/29 00:21:10;;;;;;;9.85;2.10;;;;;;;5.37;100.00;94530.38;1010896;29;20727;-65
2021/12/29 00:21:41;;;;;;;11.57;2.58;;;;;;;5.37;100.00;94544.16;1006758;29;20021;-65
2021/12/29 00:22:11;;;;;;;10.80;3.03;;;;;;;5.31;100.00;94519.16;1006427;29;20025;-65
2021/12/29 00:22:41;;;;;;;11.95;2.05;;;;;;;5.38;100.00;94530.09;1010828;29;20035;-66
2021/12/29 00:23:12;;;;;;;14.80;2.55;;;;;;;5.43;100.00;94534.50;1010455;29;20020;-65
2021/12/29 00:23:42;;;;;;;14.50;2.60;;;;;;;5.42;100.00;94536.34;1011884;29;20029;-65
2021/12/29 00:24:13;;;;;;;15.55;2.58;;;;;;;5.40;100.00;94530.63;1014633;29;20031;-67
2021/12/29 00:24:45;;;;;;;13.13;2.67;;;;;;;5.38;100.00;94535.28;1018323;29;20024;-65
2021/12/29 00:25:15;;;;;;;10.90;2.30;;;;;;;5.41;100.00;94531.41;1014775;29;20410;-65
2021/12/29 00:25:46;;;;;;;9.73;2.05;;;;;;;5.44;100.00;94534.25;1010348;29;20273;-63
2021/12/29 00:26:17;;;;;;;8.93;2.03;;;;;;;5.41;100.00;94532.19;1010449;29;20028;-65
2021/12/29 00:26:48;;;;;;;14.52;2.75;;;;;;;5.31;100.00;94532.16;1011181;29;20068;-65
2021/12/29 00:27:18;;;;;;;9.55;2.20;;;;;;;5.34;100.00;94538.69;1013822;29;20272;-65
2021/12/29 00:27:48;;;;;;;9.50;2.20;;;;;;;5.38;100.00;94544.94;1014550;29;20028;-66
2021/12/29 00:28:19;;;;;;;9.52;2.35;;;;;;;5.36;100.00;94542.56;1018593;29;20031;-66
2021/12/29 00:28:49;;;;;;;14.75;2.60;;;;;;;5.35;100.00;94545.44;1009967;29;20032;-66
2021/12/29 00:29:20;;;;;;;15.02;2.92;;;;;;;5.31;100.00;94539.97;1003080;29;20670;-66
2021/12/29 00:29:50;;;;;;;17.17;3.13;;;;;;;5.37;100.00;94538.94;1010302;29;20029;-65
2021/12/29 00:30:21;;;;;;;12.65;2.83;;;;;;;5.36;100.00;94537.38;1009979;29;20025;-66
2021/12/29 00:30:52;;;;;;;18.05;3.17;;;;;;;5.35;100.00;94535.81;1014417;29;20032;-66
2021/12/29 00:31:22;;;;;;;16.55;2.78;;;;;;;5.39;100.00;94539.44;1018326;29;20024;-67
2021/12/29 00:31:53;;;;;;;18.67;2.88;;;;;;;5.40;100.00;94538.44;1018278;29;20027;-67
2021/12/29 00:32:23;;;;;;;8.30;2.22;;;;;;;5.45;100.00;94545.44;1016008;29;20031;-66
2021/12/29 00:32:54;;;;;;;16.60;2.67;;;;;;;5.41;100.00;94539.97;1014133;29;20024;-67
2021/12/29 00:33:24;;;;;;;11.10;2.03;;;;;;;5.42;100.00;94551.16;1014669;29;20083;-68
2021/12/29 00:33:55;;;;;;;17.58;3.15;;;;;;;5.31;100.00;94537.38;1015161;29;20110;-66
2021/12/29 00:34:25;;;;;;;13.02;2.70;;;;;;;5.33;100.00;94544.91;1014448;29;20032;-66
2021/12/29 00:34:58;;;;;;;12.90;2.90;;;;;;;5.37;100.00;94543.38;1010840;29;20068;-66
2021/12/29 00:35:29;;;;;;;14.98;2.67;;;;;;;5.35;100.00;94548.81;1006649;29;20025;-65
2021/12/29 00:36:00;;;;;;;14.05;2.58;;;;;;;5.40;100.00;94553.25;1006621;29;20326;-66
2021/12/29 00:36:30;;;;;;;12.48;2.33;;;;;;;5.41;100.00;94549.59;1006874;29;20696;-66
2021/12/29 00:37:01;;;;;;;8.57;2.28;;;;;;;5.39;100.00;94562.84;1007219;29;20029;-66
2021/12/29 00:37:31;;;;;;;12.05;2.03;;;;;;;5.41;100.00;94558.19;1014831;29;20020;-66
2021/12/29 00:38:03;;;;;;;13.18;2.42;;;;;;;5.43;100.00;94550.91;1014000;29;20402;-66
2021/12/29 00:38:34;;;;;;;21.70;2.80;;;;;;;5.40;100.00;94559.25;1006396;29;20750;-66
2021/12/29 00:39:05;;;;;;;8.55;2.03;;;;;;;5.39;100.00;94568.06;1010404;29;20265;-66
2021/12/29 00:39:35;;;;;;;12.45;1.90;;;;;;;5.44;100.00;94562.09;1010559;29;20489;-66
2021/12/29 00:40:07;;;;;;;9.10;2.15;;;;;;;5.32;100.00;94551.94;1009518;29;20273;-66
2021/12/29 00:40:38;;;;;;;15.68;2.97;;;;;;;5.33;100.00;94563.91;1011101;29;20021;-66
2021/12/29 00:41:09;;;;;;;9.45;2.55;;;;;;;5.38;100.00;94579.50;1006324;29;20303;-65
2021/12/29 00:41:39;;;;;;;12.90;2.67;;;;;;;5.38;100.00;94582.13;1003583;29;20274;-65
2021/12/29 00:42:09;;;;;;;12.82;2.88;;;;;;;5.44;100.00;94573.28;1006566;29;20573;-65
2021/12/29 00:42:40;;;;;;;12.27;2.80;;;;;;;5.41;100.00;94560.78;1010604;29;20491;-67
2021/12/29 00:43:10;;;;;;;13.05;2.75;;;;;;;5.40;100.00;94563.66;1014513;29;20418;-67
2021/12/29 00:43:41;;;;;;;21.83;3.28;;;;;;;5.47;100.00;94576.41;1010266;29;20140;-66
2021/12/29 00:44:11;;;;;;;13.57;2.42;;;;;;;5.36;100.00;94568.56;1010578;29;20499;-65
2021/12/29 00:44:42;;;;;;;10.57;2.20;;;;;;;5.42;100.00;94580.56;1010784;29;20032;-66
2021/12/29 00:45:12;;;;;;;13.05;2.45;;;;;;;5.42;100.00;94580.56;1016152;29;20052;-67
2021/12/29 00:45:43;;;;;;;15.73;2.20;;;;;;;5.41;100.00;94583.44;1018506;29;20015;-65
2021/12/29 00:46:17;;;;;;;12.48;2.55;;;;;;;5.35;100.00;94567.03;1002811;29;20108;-64
2021/12/29 00:46:52;;;;;;;11.35;2.28;;;;;;;5.41;100.00;94575.63;1010049;29;20027;-65
2021/12/29 00:47:22;;;;;;;9.63;2.17;;;;;;;5.39;100.00;94568.06;1010594;29;21224;-67
2021/12/29 00:47:53;;;;;;;13.32;2.83;;;;;;;5.38;100.00;94576.91;1010475;29;20279;-65
2021/12/29 00:48:35;;;;;;;12.75;2.67;;;;;;;5.40;100.00;94580.03;1003520;29;20403;-65
2021/12/29 00:49:09;;;;;;;13.40;2.88;;;;;;;5.39;100.00;94577.69;1006397;29;20277;-66
2021/12/29 00:49:40;;;;;;;13.55;2.60;;;;;;;5.38;100.00;94571.72;1008394;29;20277;-66
2021/12/29 00:50:13;;;;;;;11.43;2.35;;;;;;;5.37;100.00;94580.56;1007842;29;20300;-66
2021/12/29 00:50:44;;;;;;;13.25;2.28;;;;;;;5.38;100.00;94582.13;1014502;29;20044;-65
2021/12/29 00:51:14;;;;;;;11.45;2.10;;;;;;;5.38;100.00;94581.34;1014551;29;20754;-65
2021/12/29 00:51:45;;;;;;;13.85;2.38;;;;;;;5.36;100.00;94568.56;1009981;29;20483;-66
2021/12/29 00:52:16;;;;;;;11.85;2.17;;;;;;;5.38;100.00;94571.72;1006929;29;20419;-66
2021/12/29 00:52:46;;;;;;;15.13;2.88;;;;;;;5.42;100.00;94585.75;1006802;29;20029;-65
2021/12/29 00:53:17;;;;;;;12.85;2.30;;;;;;;5.41;100.00;94575.63;1006458;29;20730;-67
2021/12/29 00:53:47;;;;;;;13.55;2.92;;;;;;;5.43;100.00;94579.53;1009272;29;20025;-65
2021/12/29 00:54:17;;;;;;;14.50;2.22;;;;;;;5.42;100.00;94585.75;1014659;29;20020;-66
2021/12/29 00:54:48;;;;;;;17.65;2.83;;;;;;;5.42;100.00;94592.78;1018176;29;20028;-67
2021/12/29 00:55:19;;;;;;;14.55;2.55;;;;;;;5.38;100.00;94571.72;1015707;29;20152;-67
2021/12/29 00:55:50;;;;;;;14.02;2.38;;;;;;;5.47;100.00;94592.81;1018030;29;20039;-66
2021/12/29 00:56:20;;;;;;;10.98;2.28;;;;;;;5.49;100.00;94579.53;1017792;29;20665;-66
2021/12/29 00:56:51;;;;;;;12.82;2.42;;;;;;;5.51;100.00;94590.47;1018411;29;20027;-66
2021/12/29 00:57:21;;;;;;;15.38;2.70;;;;;;;5.51;100.00;94585.25;1022074;29;20027;-66
2021/12/29 00:57:51;;;;;;;12.70;2.67;;;;;;;5.52;100.00;94597.22;1015996;29;20024;-67
2021/12/29 00:58:22;;;;;;;15.90;2.55;;;;;;;5.44;100.00;94593.31;1010753;29;20033;-66
2021/12/29 00:58:52;;;;;;;19.83;2.78;;;;;;;5.49;100.00;94595.13;1010651;29;20302;-65
2021/12/29 00:59:23;;;;;;;20.00;3.22;;;;;;;5.40;100.00;94590.44;1010336;29;20028;-67
2021/12/29 00:59:54;;;;;;;13.63;3.10;;;;;;;5.43;100.00;94595.16;1002229;29;20266;-66
2021/12/29 01:00:25;;;;;;;11.63;2.00;;;;;;;5.48;100.00;94601.38;1007787;29;20329;-67
2021/12/29 01:00:56;;;;;;;16.25;2.40;;;;;;;5.49;100.00;94597.72;1010605;29;20394;-67
2021/12/29 01:01:28;;;;;;;13.63;3.08;;;;;;;5.48;100.00;94596.97;1014429;29;20028;-65
2021/12/29 01:01:58;;;;;;;10.45;2.10;;;;;;;5.49;100.00;94600.34;1008250;29;20384;-66
2021/12/29 01:02:29;;;;;;;16.08;2.88;;;;;;;5.39;100.00;94593.28;1011054;29;20364;-67
2021/12/29 01:02:59;;;;;;;15.25;3.10;;;;;;;5.42;100.00;94598.75;1010621;29;20017;-67
2021/12/29 01:03:30;;;;;;;14.77;2.38;;;;;;;5.42;100.00;94603.19;1014880;29;20032;-67
2021/12/29 01:04:01;;;;;;;10.35;2.10;;;;;;;5.32;100.00;94592.78;1013750;29;20120;-66
2021/12/29 01:04:32;;;;;;;12.18;2.30;;;;;;;5.34;100.00;94604.47;1010480;29;20080;-66
2021/12/29 01:05:03;;;;;;;13.20;1.90;;;;;;;5.41;100.00;94605.00;1006617;29;20269;-66
2021/12/29 01:05:33;;;;;;;14.05;2.70;;;;;;;5.35;100.00;94595.63;1012150;29;20071;-67
2021/12/29 01:06:04;;;;;;;13.57;2.40;;;;;;;5.41;100.00;94612.03;1014532;28;20027;-67
2021/12/29 01:06:35;;;;;;;12.77;2.40;;;;;;;5.41;100.00;94612.81;1018294;29;20781;-65
2021/12/29 01:07:05;;;;;;;12.50;3.20;;;;;;;5.38;100.00;94602.94;1013791;29;20586;-67
2021/12/29 01:07:35;;;;;;;8.73;1.95;;;;;;;5.41;100.00;94605.00;1018307;29;20402;-65
2021/12/29 01:08:06;;;;;;;13.60;2.63;;;;;;;5.47;100.00;94607.63;1017900;29;20171;-65
2021/12/29 01:08:37;;;;;;;8.85;2.78;;;;;;;5.44;100.00;94620.09;1014381;29;20658;-66
2021/12/29 01:09:07;;;;;;;12.25;2.28;;;;;;;5.42;100.00;94613.59;1014074;29;20028;-67
2021/12/29 01:09:38;;;;;;;14.10;2.58;;;;;;;5.43;100.00;94618.56;1018214;29;20025;-65
2021/12/29 01:10:08;;;;;;;15.93;2.55;;;;;;;5.40;100.00;94605.28;1017533;29;20075;-64
2021/12/29 01:10:39;;;;;;;11.68;2.53;;;;;;;5.41;100.00;94612.81;1018201;29;20024;-66
2021/12/29 01:11:10;;;;;;;16.73;3.03;;;;;;;5.43;100.00;94615.97;1014292;29;20017;-66
2021/12/29 01:11:40;;;;;;;10.50;2.03;;;;;;;5.42;100.00;94609.16;1010711;29;20037;-65
2021/12/29 01:12:11;;;;;;;10.52;2.10;;;;;;;5.51;100.00;94614.66;1009944;29;20028;-67
2021/12/29 01:12:53;;;;;;;12.80;2.80;;;;;;;5.48;100.00;94611.78;1014297;29;20083;-66
2021/12/29 01:13:30;;;;;;;15.45;3.08;;;;;;;5.46;100.00;94612.03;1020616;29;20274;-66
2021/12/29 01:14:01;;;;;;;12.07;2.60;;;;;;;5.50;100.00;94627.91;1017735;29;20271;-66
2021/12/29 01:14:31;;;;;;;8.07;2.03;;;;;;;5.58;100.00;94614.41;1018358;29;20295;-67
2021/12/29 01:15:03;;;;;;;11.32;2.63;;;;;;;5.59;100.00;94618.56;1015728;29;20030;-65
2021/12/29 01:15:47;;;;;;;11.95;2.72;;;;;;;5.50;100.00;94609.69;1006466;29;20050;-67
2021/12/29 01:17:03;;;;;;;9.95;2.10;;;;;;;5.63;100.00;94624.81;1012202;29;20320;-65
2021/12/29 01:17:33;;;;;;;14.82;2.67;;;;;;;5.63;100.00;94630.00;1018193;29;20283;-67
2021/12/29 01:18:05;;;;;;;12.55;2.28;;;;;;;5.57;100.00;94625.88;1021967;29;20074;-64
2021/12/29 01:18:36;;;;;;;10.90;1.90;;;;;;;5.63;100.00;94622.19;1010505;29;20084;-66
2021/12/29 01:19:10;;;;;;;11.52;1.88;;;;;;;5.63;100.00;94630.00;1010148;29;20304;-65
2021/12/29 01:19:41;;;;;;;10.95;2.28;;;;;;;5.60;100.00;94620.91;1010375;29;20671;-66
2021/12/29 01:20:11;;;;;;;16.70;3.13;;;;;;;5.56;100.00;94627.66;1009835;29;20265;-65
2021/12/29 01:20:41;;;;;;;15.73;3.45;;;;;;;5.54;100.00;94629.75;1010728;29;20021;-66
2021/12/29 01:21:12;;;;;;;15.32;2.33;;;;;;;5.53;100.00;94627.41;1012927;29;20891;-66
2021/12/29 01:21:44;;;;;;;12.20;2.28;;;;;;;5.56;100.00;94624.28;1018119;29;20485;-66
2021/12/29 01:22:14;;;;;;;12.20;2.10;;;;;;;5.51;100.00;94625.06;1015323;28;20504;-66
2021/12/29 01:22:45;;;;;;;15.95;4.43;;;;;;;5.54;100.00;94636.78;1013278;29;20272;-66
2021/12/29 01:23:15;;;;;;;12.10;1.88;;;;;;;5.43;100.00;94623.75;1014105;29;20016;-66
2021/12/29 01:23:46;;;;;;;10.55;2.75;;;;;;;5.54;100.00;94631.56;1010170;29;20471;-67
2021/12/29 01:24:16;;;;;;;10.52;2.78;;;;;;;5.58;100.00;94627.41;1014666;29;20398;-67
2021/12/29 01:24:47;;;;;;;12.63;2.50;;;;;;;5.62;100.00;94638.88;1010391;29;20107;-66
2021/12/29 01:25:18;;;;;;;15.13;2.20;;;;;;;5.59;100.00;94628.97;1010476;29;20462;-67
2021/12/29 01:25:48;;;;;;;12.55;2.28;;;;;;;5.58;100.00;94632.63;1018309;29;20133;-66
2021/12/29 01:26:19;;;;;;;12.35;2.08;;;;;;;5.59;100.00;94628.97;1005053;29;20156;-66
2021/12/29 01:26:49;;;;;;;15.38;2.80;;;;;;;5.59;100.00;94634.19;1010715;29;20522;-66
2021/12/29 01:27:20;;;;;;;16.45;2.45;;;;;;;5.54;100.00;94621.94;1020570;29;20572;-66
2021/12/29 01:27:50;;;;;;;11.02;2.40;;;;;;;5.59;100.00;94636.78;1016497;29;20023;-66
2021/12/29 01:28:21;;;;;;;14.60;2.65;;;;;;;5.55;100.00;94627.94;1014358;29;20027;-66
2021/12/29 01:28:51;;;;;;;11.05;2.42;;;;;;;5.52;100.00;94638.84;1010131;29;20487;-66
2021/12/29 01:29:22;;;;;;;13.73;2.35;;;;;;;5.54;100.00;94642.00;1010088;29;20040;-67
2021/12/29 01:29:52;;;;;;;9.40;1.65;;;;;;;5.63;100.00;94630.00;1008267;29;20035;-66
2021/12/29 01:30:23;;;;;;;11.77;2.00;;;;;;;5.63;100.00;94640.41;1005883;29;20025;-67
2021/12/29 01:30:54;;;;;;;11.70;2.22;;;;;;;5.60;100.00;94643.53;1006656;29;20032;-66
2021/12/29 01:31:24;;;;;;;13.70;2.25;;;;;;;5.60;100.00;94630.53;1006381;29;20589;-67
2021/12/29 01:31:56;;;;;;;8.45;2.25;;;;;;;5.62;100.00;94628.47;1012671;29;20031;-66
2021/12/29 01:32:26;;;;;;;6.88;1.77;;;;;;;5.61;100.00;94626.91;1018376;29;20056;-66
2021/12/29 01:32:57;;;;;;;14.63;2.55;;;;;;;5.64;100.00;94634.19;1014144;29;20304;-65
2021/12/29 01:33:27;;;;;;;12.90;2.40;;;;;;;5.62;100.00;94633.66;1009914;29;20072;-65
2021/12/29 01:33:59;;;;;;;13.82;2.20;;;;;;;5.58;100.00;94637.81;1006844;29;20029;-67
2021/12/29 01:34:30;;;;;;;17.42;2.45;;;;;;;5.64;100.00;94642.00;1006790;29;20025;-66
2021/12/29 01:35:00;;;;;;;11.98;2.50;;;;;;;5.58;100.00;94625.59;1010844;29;20269;-66
2021/12/29 01:35:34;;;;;;;15.63;2.95;;;;;;;5.63;100.00;94628.22;1006401;29;20507;-63
2021/12/29 01:36:04;;;;;;;11.30;1.88;;;;;;;5.60;100.00;94646.13;1006490;29;20066;-67
2021/12/29 01:36:35;;;;;;;12.65;3.30;;;;;;;5.60;100.00;94641.75;1010400;29;20302;-66
2021/12/29 01:37:06;;;;;;;10.55;2.08;;;;;;;5.51;100.00;94625.06;1014630;29;20060;-67
2021/12/29 01:37:36;;;;;;;10.48;2.25;;;;;;;5.57;100.00;94638.88;1014544;29;20781;-67
2021/12/29 01:38:09;;;;;;;12.25;2.72;;;;;;;5.57;100.00;94646.69;1013561;29;20031;-63
2021/12/29 01:38:40;;;;;;;7.65;1.95;;;;;;;5.55;100.00;94639.13;1010790;29;20119;-65
2021/12/29 01:39:13;;;;;;;19.90;2.60;;;;;;;5.53;100.00;94635.97;1014421;29;20370;-66
2021/12/29 01:39:43;;;;;;;10.02;2.58;;;;;;;5.51;100.00;94645.88;1010979;29;20020;-63
2021/12/29 01:40:17;;;;;;;11.95;2.90;;;;;;;5.57;100.00;94641.47;1010640;29;20276;-65
2021/12/29 01:40:49;;;;;;;14.27;2.00;;;;;;;5.54;100.00;94640.16;1010405;29;20464;-65
2021/12/29 01:41:19;;;;;;;8.90;2.00;;;;;;;5.58;100.00;94637.81;1014175;29;20268;-66
2021/12/29 01:41:52;;;;;;;12.23;2.45;;;;;;;5.58;100.00;94643.03;1009983;29;20261;-66
2021/12/29 01:42:22;;;;;;;12.55;2.92;;;;;;;5.55;100.00;94635.72;1002682;29;20052;-67
2021/12/29 01:42:53;;;;;;;11.85;2.90;;;;;;;5.57;100.00;94637.06;1006469;29;20324;-66
2021/12/29 01:43:23;;;;;;;8.98;1.83;;;;;;;5.60;100.00;94646.94;1008842;29;20072;-66
2021/12/29 01:43:54;;;;;;;16.08;2.90;;;;;;;5.58;100.00;94654.22;1014181;29;20202;-65
2021/12/29 01:44:25;;;;;;;10.48;2.33;;;;;;;5.53;100.00;94645.59;1022113;29;20417;-67
2021/12/29 01:44:56;;;;;;;15.80;2.13;;;;;;;5.58;100.00;94648.22;1013735;29;20036;-66
2021/12/29 01:45:26;;;;;;;8.70;2.13;;;;;;;5.61;100.00;94658.91;1006464;29;20265;-67
2021/12/29 01:45:56;;;;;;;8.77;1.98;;;;;;;5.59;100.00;94655.78;1006888;29;20593;-67
2021/12/29 01:46:27;;;;;;;10.60;2.35;;;;;;;5.56;100.00;94634.69;1010400;29;20520;-66
2021/12/29 01:46:58;;;;;;;11.80;2.88;;;;;;;5.61;100.00;94658.13;1009891;29;20020;-66
2021/12/29 01:47:29;;;;;;;13.77;2.05;;;;;;;5.49;100.00;94637.53;1014496;29;20008;-66
2021/12/29 01:48:00;;;;;;;11.48;1.98;;;;;;;5.56;100.00;94656.28;1010057;29;20052;-67
2021/12/29 01:48:31;;;;;;;9.27;2.20;;;;;;;5.60;100.00;94648.75;1009683;29;20265;-63
2021/12/29 01:49:01;;;;;;;13.70;2.78;;;;;;;5.60;100.00;94656.53;1010135;29;20261;-64
2021/12/29 01:49:32;;;;;;;10.25;2.72;;;;;;;5.65;100.00;94656.56;1010553;29;20040;-66
2021/12/29 01:50:04;;;;;;;13.68;2.20;;;;;;;5.63;100.00;94656.84;1013826;29;20499;-63
2021/12/29 01:50:35;;;;;;;9.07;1.90;;;;;;;5.59;100.00;94649.78;1014499;29;20498;-67
2021/12/29 01:51:05;;;;;;;11.18;2.40;;;;;;;5.72;100.00;94653.72;1014872;29;20284;-65
2021/12/29 01:51:37;;;;;;;12.50;2.15;;;;;;;5.66;100.00;94640.69;1015598;29;20295;-66
2021/12/29 01:52:13;;;;;;;9.75;1.73;;;;;;;5.70;100.00;94655.78;1018559;29;20110;-66
2021/12/29 01:52:50;;;;;;;13.95;2.63;;;;;;;5.66;100.00;94656.28;1018409;29;20263;-67
2021/12/29 01:53:30;;;;;;;17.02;3.22;;;;;;;5.62;100.00;94655.25;1018788;29;20264;-67
2021/12/29 01:54:15;;;;;;;12.32;2.60;;;;;;;5.68;100.00;94664.63;1018701;29;20577;-66
2021/12/29 01:54:45;;;;;;;13.35;2.60;;;;;;;5.73;100.00;94663.84;1015345;29;20029;-67
2021/12/29 01:55:16;;;;;;;16.73;1.77;;;;;;;5.61;100.00;94652.94;1015147;29;20758;-65
2021/12/29 01:55:46;;;;;;;10.00;2.55;;;;;;;5.71;100.00;94663.34;1011434;29;20024;-63
2021/12/29 01:56:17;;;;;;;10.48;2.33;;;;;;;5.66;100.00;94655.53;1016764;29;20020;-67
2021/12/29 01:56:47;;;;;;;14.57;2.40;;;;;;;5.73;100.00;94665.69;1015995;29;20020;-67
2021/12/29 01:57:18;;;;;;;13.90;2.53;;;;;;;5.66;100.00;94666.72;1013967;29;20020;-63
2021/12/29 01:57:49;;;;;;;15.98;2.58;;;;;;;5.56;100.00;94660.72;1015766;29;20032;-66
2021/12/29 01:58:20;;;;;;;9.18;2.00;;;;;;;5.56;100.00;94655.50;1015541;29;20073;-67
2021/12/29 01:58:50;;;;;;;10.07;1.85;;;;;;;5.70;100.00;94659.19;1014852;29;20012;-66
2021/12/29 01:59:20;;;;;;;10.48;2.78;;;;;;;5.71;100.00;94678.19;1019270;29;20053;-67
2021/12/29 01:59:51;;;;;;;9.70;2.17;;;;;;;5.65;100.00;94659.16;1015749;29;20028;-67
2021/12/29 02:00:23;;;;;;;9.80;2.10;;;;;;;5.65;100.00;94661.78;1011082;29;20028;-66
2021/12/29 02:00:54;;;;;;;14.60;2.40;;;;;;;5.68;100.00;94689.88;1004013;29;20057;-67
2021/12/29 02:01:24;;;;;;;11.80;2.72;;;;;;;5.68;100.00;94675.03;1007884;29;20629;-65
2021/12/29 02:01:55;;;;;;;11.75;3.00;;;;;;;5.72;100.00;94670.09;1011935;29;20268;-66
2021/12/29 02:02:25;;;;;;;9.38;2.47;;;;;;;5.71;100.00;94678.97;1015684;29;20107;-67
2021/12/29 02:02:55;;;;;;;11.95;2.08;;;;;;;5.75;100.00;94669.59;1011883;29;20164;-66
2021/12/29 02:03:26;;;;;;;15.80;2.30;;;;;;;5.72;100.00;94675.31;1015620;29;20040;-66
2021/12/29 02:03:58;;;;;;;11.52;2.15;;;;;;;5.73;100.00;94681.28;1015455;29;20025;-66
2021/12/29 02:04:29;;;;;;;6.80;1.45;;;;;;;5.78;100.00;94669.09;1011671;29;20049;-66
2021/12/29 02:04:59;;;;;;;9.82;2.03;;;;;;;5.76;100.00;94689.38;1012028;29;20620;-67
2021/12/29 02:05:30;;;;;;;8.73;2.25;;;;;;;5.78;100.00;94681.31;1019892;29;20082;-66
2021/12/29 02:06:00;;;;;;;13.45;2.15;;;;;;;5.76;100.00;94684.16;1018961;29;20447;-66
2021/12/29 02:06:31;;;;;;;11.90;2.50;;;;;;;5.68;100.00;94676.88;1019952;29;20490;-64
2021/12/29 02:07:01;;;;;;;10.63;2.00;;;;;;;5.67;100.00;94672.72;1015660;29;20482;-67
2021/12/29 02:07:32;;;;;;;11.05;2.50;;;;;;;5.68;100.00;94674.28;1007621;29;20054;-67
2021/12/29 02:08:04;;;;;;;11.68;2.30;;;;;;;5.74;100.00;94678.44;1012013;29;20323;-66
2021/12/29 02:08:35;;;;;;;12.60;2.28;;;;;;;5.77;100.00;94680.53;1007947;29;20488;-66
2021/12/29 02:09:06;;;;;;;14.30;2.22;;;;;;;5.73;100.00;94683.91;1012116;29;20374;-67
2021/12/29 02:09:37;;;;;;;7.70;1.98;;;;;;;5.68;100.00;94692.50;1011364;29;20044;-67
2021/12/29 02:10:08;;;;;;;14.82;2.72;;;;;;;5.69;100.00;94670.63;1015012;29;20619;-65
2021/12/29 02:10:44;;;;;;;12.05;2.45;;;;;;;5.74;100.00;94664.66;1015193;29;20019;-66
2021/12/29 02:11:14;;;;;;;9.98;1.98;;;;;;;5.79;100.00;94678.44;1011806;29;20021;-66
2021/12/29 02:11:45;;;;;;;11.38;2.13;;;;;;;5.77;100.00;94675.34;1011877;29;20265;-67
2021/12/29 02:12:16;;;;;;;7.93;2.10;;;;;;;5.76;100.00;94676.34;1011790;29;20023;-66
2021/12/29 02:12:47;;;;;;;17.00;3.78;;;;;;;5.73;100.00;94671.66;1011450;29;20107;-67
2021/12/29 02:13:20;;;;;;;7.40;2.10;;;;;;;5.72;100.00;94664.91;1008572;29;20689;-64
2021/12/29 02:13:51;;;;;;;11.00;2.22;;;;;;;5.77;100.00;94672.72;1011750;29;20475;-67
2021/12/29 02:14:21;;;;;;;9.85;2.58;;;;;;;5.76;100.00;94676.34;1008082;29;20281;-67
2021/12/29 02:14:52;;;;;;;10.13;1.77;;;;;;;5.78;100.00;94676.88;1012449;29;20028;-66
2021/12/29 02:15:22;;;;;;;13.00;2.08;;;;;;;5.81;100.00;94678.97;1009305;29;20071;-66
2021/12/29 02:15:53;;;;;;;13.70;2.40;;;;;;;5.77;100.00;94677.94;1009025;29;20044;-67
2021/12/29 02:16:23;;;;;;;7.20;1.83;;;;;;;5.75;100.00;94685.22;1015532;29;20032;-66
2021/12/29 02:16:54;;;;;;;10.20;2.05;;;;;;;5.75;100.00;94682.59;1015749;29;20396;-67
2021/12/29 02:17:24;;;;;;;10.93;2.00;;;;;;;5.73;100.00;94686.50;1015554;29;20020;-67
2021/12/29 02:17:54;;;;;;;8.82;1.90;;;;;;;5.73;100.00;94689.88;1016034;29;20035;-67
2021/12/29 02:18:26;;;;;;;11.68;2.08;;;;;;;5.71;100.00;94689.38;1015618;29;20096;-66
2021/12/29 02:18:58;;;;;;;9.65;2.33;;;;;;;5.63;100.00;94667.25;1015857;29;20032;-67
2021/12/29 02:19:28;;;;;;;12.45;2.42;;;;;;;5.72;100.00;94688.31;1015398;29;20810;-66
2021/12/29 02:19:59;;;;;;;10.18;2.05;;;;;;;5.67;100.00;94681.31;1019446;29;20400;-66
2021/12/29 02:20:30;;;;;;;15.48;1.73;;;;;;;5.74;100.00;94688.09;1015287;29;20040;-66
2021/12/29 02:21:00;;;;;;;12.93;2.42;;;;;;;5.72;100.00;94695.34;1018189;29;20780;-67
2021/12/29 02:21:32;;;;;;;11.75;2.35;;;;;;;5.72;100.00;94688.31;1015886;29;20478;-67
2021/12/29 02:22:19;;;;;;;7.50;1.52;;;;;;;5.71;100.00;94699.00;1015678;29;20635;-66
2021/12/29 02:24:39;;;;;;;8.52;1.95;;;;;;;5.76;100.00;94702.38;1011760;29;20351;-67
2021/12/29 02:25:53;;;;;;;10.07;2.25;;;;;;;5.68;100.00;94702.91;1011244;29;20303;-66
2021/12/29 02:26:24;;;;;;;11.77;2.00;;;;;;;5.65;100.00;94706.00;1014515;29;20276;-67
2021/12/29 02:26:55;;;;;;;8.30;1.92;;;;;;;5.65;100.00;94703.41;1008078;29;20274;-66
2021/12/29 02:27:25;;;;;;;9.23;1.83;;;;;;;5.59;100.00;94702.59;1004877;29;20021;-66
2021/12/29 02:27:56;;;;;;;11.40;1.90;;;;;;;5.65;100.00;94719.03;1012052;29;20252;-64
2021/12/29 02:28:27;;;;;;;12.30;2.78;;;;;;;5.69;100.00;94709.66;1004926;29;20056;-64
2021/12/29 02:29:00;;;;;;;8.55;2.13;;;;;;;5.64;100.00;94707.84;1012764;29;20032;-67